createdAt,value
2019-02-20T00:00:48.389Z,96.70
2019-02-20T00:03:16.228Z,97.30
2019-02-20T00:05:44.129Z,97.10
2019-02-20T00:08:12.031Z,96.50
2019-02-20T00:10:39.877Z,96.40
2019-02-20T00:13:07.846Z,96.00
2019-02-20T00:15:35.819Z,95.80
2019-02-20T00:18:03.637Z,95.60
2019-02-20T00:20:31.403Z,96.20
2019-02-20T00:22:59.327Z,96.10
2019-02-20T00:25:27.148Z,95.90
2019-02-20T00:27:55.072Z,96.00
2019-02-20T00:30:22.998Z,95.60
2019-02-20T00:32:50.913Z,95.70
2019-02-20T00:35:18.841Z,95.60
2019-02-20T00:37:46.601Z,95.60
2019-02-20T00:40:14.386Z,95.70
2019-02-20T00:42:42.274Z,96.20
2019-02-20T00:45:28.280Z,96.20
2019-02-20T00:48:14.268Z,96.30
2019-02-20T00:50:43.264Z,96.20
2019-02-20T00:53:20.269Z,96.40
2019-02-20T00:55:48.079Z,96.40
2019-02-20T00:58:15.989Z,96.70
2019-02-20T01:00:44.102Z,96.80
2019-02-20T01:03:12.034Z,96.60
2019-02-20T01:05:39.930Z,96.20
2019-02-20T01:08:13.267Z,96.00
2019-02-20T01:10:41.866Z,95.90
2019-02-20T01:13:09.741Z,95.60
2019-02-20T01:15:37.994Z,96.20
2019-02-20T01:18:06.040Z,96.40
2019-02-20T01:20:33.901Z,96.30
2019-02-20T01:23:02.074Z,96.40
2019-02-20T01:25:31.656Z,95.90
2019-02-20T01:27:59.855Z,97.00
2019-02-20T01:30:27.945Z,96.30
2019-02-20T01:32:57.730Z,95.80
2019-02-20T01:35:25.729Z,95.70
2019-02-20T01:37:53.789Z,96.00
2019-02-20T01:40:21.790Z,96.00
2019-02-20T01:42:49.848Z,96.00
2019-02-20T01:45:18.907Z,95.40
2019-02-20T01:47:46.979Z,95.30
2019-02-20T01:50:16.170Z,95.90
2019-02-20T01:52:44.043Z,96.00
2019-02-20T01:55:11.897Z,96.00
2019-02-20T01:57:41.793Z,95.50
2019-02-20T02:00:10.287Z,95.80
2019-02-20T02:02:38.678Z,95.60
2019-02-20T02:05:14.775Z,95.60
2019-02-20T02:07:37.229Z,95.40
2019-02-20T02:10:07.011Z,95.30
2019-02-20T02:12:35.248Z,95.60
2019-02-20T02:15:03.739Z,95.30
2019-02-20T02:17:31.543Z,94.80
2019-02-20T02:19:59.332Z,94.90
2019-02-20T02:22:27.216Z,95.20
2019-02-20T02:24:54.969Z,94.90
2019-02-20T02:27:22.735Z,94.90
2019-02-20T02:29:50.625Z,94.70
2019-02-20T02:32:18.418Z,94.40
2019-02-20T02:34:46.309Z,94.40
2019-02-20T02:37:14.268Z,94.60
2019-02-20T02:39:42.044Z,95.20
2019-02-20T02:42:09.933Z,95.10
2019-02-20T02:44:39.014Z,94.70
2019-02-20T02:47:06.806Z,95.70
2019-02-20T02:49:34.747Z,95.00
2019-02-20T02:52:02.530Z,95.20
2019-02-20T02:54:30.508Z,94.90
2019-02-20T02:56:58.414Z,94.70
2019-02-20T02:59:26.200Z,94.80
2019-02-20T03:01:53.969Z,95.20
2019-02-20T03:04:22.046Z,95.20
2019-02-20T03:06:50.054Z,95.30
2019-02-20T03:09:17.826Z,95.40
2019-02-20T03:11:45.793Z,95.30
2019-02-20T03:14:13.562Z,95.20
2019-02-20T03:16:43.699Z,94.80
2019-02-20T03:19:11.653Z,95.40
2019-02-20T03:21:39.562Z,95.20
2019-02-20T03:24:07.354Z,95.50
2019-02-20T03:26:35.119Z,94.80
2019-02-20T03:29:03.037Z,94.80
2019-02-20T03:31:32.505Z,94.60
2019-02-20T03:34:04.374Z,95.20
2019-02-20T03:36:32.489Z,95.20
2019-02-20T03:39:04.151Z,95.30
2019-02-20T03:41:31.935Z,94.90
2019-02-20T03:43:59.728Z,94.70
2019-02-20T03:46:27.656Z,95.10
2019-02-20T03:48:55.435Z,95.60
2019-02-20T03:51:23.197Z,96.10
2019-02-20T03:53:52.247Z,96.40
2019-02-20T03:56:20.572Z,96.70
2019-02-20T03:58:48.345Z,96.50
2019-02-20T04:01:16.131Z,95.90
2019-02-20T04:03:44.030Z,95.70
2019-02-20T04:06:11.813Z,95.50
2019-02-20T04:08:39.579Z,95.60
2019-02-20T04:11:07.704Z,95.30
2019-02-20T04:13:35.676Z,94.90
2019-02-20T04:16:03.649Z,94.30
2019-02-20T04:18:31.619Z,94.00
2019-02-20T04:21:02.405Z,93.80
2019-02-20T04:23:30.324Z,93.70
2019-02-20T04:25:58.099Z,94.30
2019-02-20T04:28:25.860Z,94.10
2019-02-20T04:30:53.845Z,94.10
2019-02-20T04:33:21.614Z,94.30
2019-02-20T04:35:49.587Z,93.90
2019-02-20T04:38:17.347Z,94.00
2019-02-20T04:40:45.320Z,94.00
2019-02-20T04:43:13.101Z,94.10
2019-02-20T04:45:40.882Z,93.40
2019-02-20T04:48:08.830Z,92.60
2019-02-20T04:50:36.600Z,92.90
2019-02-20T04:53:04.382Z,92.90
2019-02-20T04:55:32.352Z,93.10
2019-02-20T04:58:20.223Z,93.70
2019-02-20T05:00:48.141Z,93.90
2019-02-20T05:03:15.957Z,93.90
2019-02-20T05:05:43.890Z,93.90
2019-02-20T05:08:11.661Z,94.60
2019-02-20T05:10:39.660Z,95.70
2019-02-20T05:13:07.598Z,95.40
2019-02-20T05:15:35.370Z,95.30
2019-02-20T05:18:03.167Z,94.40
2019-02-20T05:20:31.147Z,94.70
2019-02-20T05:22:58.934Z,94.90
2019-02-20T05:25:26.710Z,94.80
2019-02-20T05:27:54.622Z,94.20
2019-02-20T05:30:22.379Z,94.80
2019-02-20T05:32:50.268Z,94.90
2019-02-20T05:35:18.069Z,94.60
2019-02-20T05:37:45.859Z,94.90
2019-02-20T05:40:15.824Z,95.00
2019-02-20T05:42:43.602Z,95.00
2019-02-20T05:45:11.493Z,95.00
2019-02-20T05:47:39.436Z,95.40
2019-02-20T05:50:07.511Z,95.30
2019-02-20T05:52:35.431Z,95.40
2019-02-20T05:55:03.679Z,95.70
2019-02-20T05:57:31.443Z,96.50
2019-02-20T05:59:59.419Z,96.80
2019-02-20T06:02:27.698Z,96.80
2019-02-20T06:04:55.663Z,97.30
2019-02-20T06:07:23.575Z,97.00
2019-02-20T06:09:51.441Z,97.10
2019-02-20T06:12:19.395Z,96.40
2019-02-20T06:14:47.454Z,97.00
2019-02-20T06:17:15.219Z,96.70
2019-02-20T06:19:43.200Z,96.60
2019-02-20T06:22:10.971Z,96.80
2019-02-20T06:24:44.096Z,96.90
2019-02-20T06:27:08.653Z,96.40
2019-02-20T06:29:36.401Z,95.50
2019-02-20T06:32:04.268Z,95.30
2019-02-20T06:34:32.272Z,95.80
2019-02-20T06:37:00.246Z,95.90
2019-02-20T06:39:28.210Z,95.70
2019-02-20T06:41:57.107Z,95.20
2019-02-20T06:44:24.860Z,94.80
2019-02-20T06:46:52.768Z,94.90
2019-02-20T06:49:20.538Z,94.90
2019-02-20T06:51:48.489Z,94.50
2019-02-20T06:54:16.296Z,94.30
2019-02-20T06:56:44.054Z,93.90
2019-02-20T06:59:12.001Z,94.10
2019-02-20T07:01:39.777Z,93.20
2019-02-20T07:04:07.546Z,94.90
2019-02-20T07:07:34.974Z,94.80
2019-02-20T07:10:50.087Z,94.30
2019-02-20T07:13:35.578Z,95.30
2019-02-20T07:17:10.468Z,95.30
2019-02-20T07:20:51.013Z,95.20
2019-02-20T07:23:58.642Z,94.70
2019-02-20T07:27:30.936Z,93.90
2019-02-20T07:30:04.688Z,94.90
2019-02-20T07:32:32.487Z,95.00
2019-02-20T07:35:00.391Z,94.80
2019-02-20T07:37:28.468Z,94.10
2019-02-20T07:39:57.386Z,93.60
2019-02-20T07:42:26.663Z,93.40
2019-02-20T07:44:55.952Z,93.50
2019-02-20T07:47:23.774Z,93.10
2019-02-20T07:49:51.713Z,92.70
2019-02-20T07:52:19.505Z,92.10
2019-02-20T07:54:47.339Z,92.30
2019-02-20T07:57:15.315Z,92.30
2019-02-20T07:59:43.160Z,92.20
2019-02-20T08:02:11.068Z,91.60
2019-02-20T08:04:38.835Z,92.50
2019-02-20T08:07:06.800Z,92.40
2019-02-20T08:09:34.611Z,91.60
2019-02-20T08:12:02.543Z,92.20
2019-02-20T08:14:30.315Z,92.20
2019-02-20T08:16:58.493Z,91.80
2019-02-20T08:19:26.458Z,91.80
2019-02-20T08:21:54.439Z,93.10
2019-02-20T08:24:22.233Z,93.30
2019-02-20T08:26:50.181Z,93.80
2019-02-20T08:29:19.136Z,93.20
2019-02-20T08:31:46.904Z,92.90
2019-02-20T08:34:15.015Z,92.90
2019-02-20T08:36:42.788Z,92.90
2019-02-20T08:39:10.554Z,92.50
2019-02-20T08:41:38.409Z,92.60
2019-02-20T08:44:06.171Z,92.30
2019-02-20T08:46:34.204Z,91.70
2019-02-20T08:49:01.950Z,92.50
2019-02-20T08:51:30.021Z,92.70
2019-02-20T08:53:57.999Z,91.90
2019-02-20T08:56:25.787Z,91.30
2019-02-20T08:58:53.735Z,90.20
2019-02-20T09:01:21.510Z,90.10
2019-02-20T09:03:50.591Z,89.30
2019-02-20T09:06:18.368Z,89.90
2019-02-20T09:08:46.129Z,89.10
2019-02-20T09:11:14.011Z,89.20
2019-02-20T09:13:42.292Z,88.10
2019-02-20T09:16:10.265Z,88.40
2019-02-20T09:18:38.240Z,86.80
2019-02-20T09:21:06.013Z,86.60
2019-02-20T09:23:33.905Z,87.80
2019-02-20T09:26:01.847Z,87.70
2019-02-20T09:28:29.616Z,89.00
2019-02-20T09:30:57.594Z,89.50
2019-02-20T09:33:25.570Z,88.90
2019-02-20T09:35:53.367Z,90.00
2019-02-20T09:38:21.147Z,88.50
2019-02-20T09:40:49.075Z,87.40
2019-02-20T09:43:16.866Z,87.10
2019-02-20T09:45:46.546Z,87.30
2019-02-20T09:48:14.344Z,87.70
2019-02-20T09:50:42.397Z,85.80
2019-02-20T09:53:10.185Z,85.00
2019-02-20T09:55:39.288Z,84.90
2019-02-20T09:58:07.306Z,86.60
2019-02-20T10:00:35.089Z,84.60
2019-02-20T10:03:03.093Z,83.00
2019-02-20T10:05:30.913Z,82.80
2019-02-20T10:07:58.712Z,80.40
2019-02-20T10:10:26.705Z,80.10
2019-02-20T10:12:54.697Z,81.80
2019-02-20T10:15:22.508Z,81.50
2019-02-20T10:17:50.310Z,80.50
2019-02-20T10:20:18.296Z,80.30
2019-02-20T10:22:46.079Z,78.00
2019-02-20T10:25:13.878Z,76.40
2019-02-20T10:27:41.896Z,78.10
2019-02-20T10:30:13.310Z,76.90
2019-02-20T10:32:41.091Z,77.20
2019-02-20T10:35:09.283Z,78.00
2019-02-20T10:37:37.306Z,79.40
2019-02-20T10:40:05.922Z,79.30
2019-02-20T10:42:33.713Z,80.50
2019-02-20T10:45:01.706Z,79.90
2019-02-20T10:47:29.634Z,79.00
2019-02-20T10:49:57.528Z,77.60
2019-02-20T10:52:25.532Z,72.10
2019-02-20T10:54:57.748Z,73.80
2019-02-20T10:57:23.053Z,74.50
2019-02-20T10:59:50.991Z,73.50
2019-02-20T11:02:19.033Z,73.30
2019-02-20T11:04:47.041Z,74.80
2019-02-20T11:07:14.934Z,73.90
2019-02-20T11:09:42.717Z,69.70
2019-02-20T11:12:14.736Z,70.00
2019-02-20T11:14:42.596Z,70.70
2019-02-20T11:17:10.587Z,71.20
2019-02-20T11:19:38.361Z,67.80
2019-02-20T11:22:06.329Z,62.00
2019-02-20T11:24:34.244Z,61.50
2019-02-20T11:27:02.018Z,62.00
2019-02-20T11:29:29.938Z,63.20
2019-02-20T11:31:57.745Z,58.60
2019-02-20T11:34:27.323Z,58.10
2019-02-20T11:36:55.295Z,57.20
2019-02-20T11:39:23.272Z,60.40
2019-02-20T11:41:51.053Z,57.60
2019-02-20T11:44:21.066Z,55.70
2019-02-20T11:46:48.927Z,57.00
2019-02-20T11:49:16.750Z,59.60
2019-02-20T11:51:44.665Z,55.30
2019-02-20T11:54:12.459Z,57.70
2019-02-20T11:56:40.240Z,55.00
2019-02-20T11:59:08.186Z,54.80
2019-02-20T12:01:35.984Z,56.40
2019-02-20T12:04:03.770Z,52.10
2019-02-20T12:06:31.672Z,51.60
2019-02-20T12:08:59.435Z,52.30
2019-02-20T12:11:27.207Z,51.90
2019-02-20T12:13:55.208Z,48.80
2019-02-20T12:16:22.998Z,45.80
2019-02-20T12:18:50.787Z,45.40
2019-02-20T12:21:18.861Z,44.60
2019-02-20T12:23:46.672Z,44.80
2019-02-20T12:26:14.547Z,46.20
2019-02-20T12:28:42.537Z,44.30
2019-02-20T12:31:10.302Z,43.20
2019-02-20T12:33:38.233Z,41.70
2019-02-20T12:36:06.255Z,40.50
2019-02-20T12:38:34.227Z,40.40
2019-02-20T12:41:02.000Z,42.70
2019-02-20T12:43:29.966Z,42.90
2019-02-20T12:45:57.771Z,43.50
2019-02-20T12:48:25.666Z,41.20
2019-02-20T12:50:53.688Z,39.70
2019-02-20T12:53:21.663Z,40.40
2019-02-20T12:55:49.640Z,39.90
2019-02-20T12:58:17.600Z,39.50
2019-02-20T13:00:45.372Z,39.60
2019-02-20T13:03:13.351Z,39.00
2019-02-20T13:05:42.493Z,38.40
2019-02-20T13:08:12.225Z,39.50
2019-02-20T13:10:40.127Z,37.60
2019-02-20T13:13:08.166Z,37.60
2019-02-20T13:15:35.995Z,36.30
2019-02-20T13:18:03.959Z,35.60
2019-02-20T13:20:33.648Z,35.60
2019-02-20T13:23:01.434Z,34.40
2019-02-20T13:25:29.411Z,35.70
2019-02-20T13:27:57.184Z,35.40
2019-02-20T13:30:24.985Z,35.80
2019-02-20T13:32:52.942Z,37.90
2019-02-20T13:35:20.900Z,35.70
2019-02-20T13:37:48.671Z,35.60
2019-02-20T13:40:16.438Z,36.10
2019-02-20T13:42:44.401Z,36.90
2019-02-20T13:45:12.192Z,36.60
2019-02-20T13:47:41.777Z,35.70
2019-02-20T13:50:11.732Z,36.40
2019-02-20T13:52:39.753Z,36.50
2019-02-20T13:55:07.650Z,36.10
2019-02-20T13:57:35.529Z,36.20
2019-02-20T14:00:03.680Z,36.70
2019-02-20T14:02:31.676Z,35.40
2019-02-20T14:04:59.468Z,36.90
2019-02-20T14:07:27.260Z,35.50
2019-02-20T14:09:55.194Z,35.50
2019-02-20T14:12:22.987Z,37.50
2019-02-20T14:14:50.756Z,37.50
2019-02-20T14:17:26.492Z,36.30
2019-02-20T14:19:48.372Z,37.90
2019-02-20T14:22:16.250Z,36.80
2019-02-20T14:24:44.312Z,37.60
2019-02-20T14:27:12.306Z,36.50
2019-02-20T14:29:40.205Z,36.10
2019-02-20T14:32:07.980Z,35.90
2019-02-20T14:34:35.772Z,36.50
2019-02-20T14:37:03.719Z,37.50
2019-02-20T14:39:32.637Z,36.00
2019-02-20T14:42:01.048Z,35.90
2019-02-20T14:44:29.170Z,36.40
2019-02-20T14:46:56.957Z,37.10
2019-02-20T14:49:24.924Z,36.50
2019-02-20T14:51:52.731Z,37.40
2019-02-20T14:54:20.485Z,37.90
2019-02-20T14:56:48.434Z,38.20
2019-02-20T14:59:16.221Z,37.70
2019-02-20T15:01:45.205Z,38.00
2019-02-20T15:04:13.271Z,38.30
2019-02-20T15:06:41.078Z,37.60
2019-02-20T15:09:10.676Z,37.20
2019-02-20T15:11:38.628Z,38.40
2019-02-20T15:14:06.412Z,37.80
2019-02-20T15:16:34.217Z,36.60
2019-02-20T15:19:02.137Z,35.30
2019-02-20T15:21:29.982Z,35.20
2019-02-20T15:23:57.774Z,35.00
2019-02-20T15:26:27.692Z,35.70
2019-02-20T15:28:55.474Z,36.50
2019-02-20T15:31:23.414Z,36.20
2019-02-20T15:33:51.314Z,37.50
2019-02-20T15:36:20.408Z,36.20
2019-02-20T15:38:48.379Z,37.70
2019-02-20T15:41:16.465Z,37.40
2019-02-20T15:43:44.284Z,36.50
2019-02-20T15:46:13.076Z,36.70
2019-02-20T15:48:42.632Z,37.00
2019-02-20T15:51:11.378Z,37.90
2019-02-20T15:53:40.139Z,37.10
2019-02-20T15:56:09.069Z,38.10
2019-02-20T15:58:38.017Z,37.70
2019-02-20T16:01:09.220Z,38.60
2019-02-20T16:03:38.202Z,38.20
2019-02-20T16:06:07.689Z,39.20
2019-02-20T16:08:38.193Z,39.70
2019-02-20T16:11:07.089Z,39.20
2019-02-20T16:13:34.934Z,40.30
2019-02-20T16:16:02.932Z,40.10
2019-02-20T16:18:30.745Z,40.50
2019-02-20T16:20:58.669Z,40.80
2019-02-20T16:23:27.208Z,41.30
2019-02-20T16:25:56.275Z,41.30
2019-02-20T16:28:33.552Z,42.10
2019-02-20T16:30:55.888Z,41.90
2019-02-20T16:33:24.632Z,42.70
2019-02-20T16:35:53.436Z,42.60
2019-02-20T16:38:21.431Z,43.80
2019-02-20T16:40:49.220Z,44.40
2019-02-20T16:43:17.600Z,43.60
2019-02-20T16:45:45.415Z,45.50
2019-02-20T16:48:13.216Z,46.30
2019-02-20T16:50:41.319Z,48.30
2019-02-20T16:53:10.900Z,48.70
2019-02-20T16:55:38.682Z,49.70
2019-02-20T16:58:07.086Z,52.10
2019-02-20T17:00:35.489Z,53.00
2019-02-20T17:03:03.489Z,52.50
2019-02-20T17:05:31.287Z,54.10
2019-02-20T17:07:59.283Z,54.90
2019-02-20T17:10:27.086Z,54.50
2019-02-20T17:12:56.695Z,56.20
2019-02-20T17:15:24.643Z,56.20
2019-02-20T17:17:53.132Z,56.80
2019-02-20T17:20:21.584Z,56.20
2019-02-20T17:22:49.884Z,57.40
2019-02-20T17:25:18.679Z,57.40
2019-02-20T17:27:46.730Z,57.90
2019-02-20T17:30:18.427Z,58.40
2019-02-20T17:32:46.253Z,60.20
2019-02-20T17:35:16.842Z,61.00
2019-02-20T17:37:44.686Z,61.10
2019-02-20T17:40:13.302Z,60.50
2019-02-20T17:42:42.411Z,60.20
2019-02-20T17:45:11.080Z,60.40
2019-02-20T17:47:38.865Z,60.80
2019-02-20T17:50:10.999Z,61.60
2019-02-20T17:52:38.776Z,63.00
2019-02-20T17:55:07.874Z,62.70
2019-02-20T17:57:36.027Z,63.20
2019-02-20T18:00:06.116Z,63.50
2019-02-20T18:02:34.142Z,63.60
2019-02-20T18:05:01.947Z,64.80
2019-02-20T18:07:29.770Z,64.10
2019-02-20T18:09:57.803Z,66.30
2019-02-20T18:12:25.587Z,66.50
2019-02-20T18:14:53.380Z,65.80
2019-02-20T18:17:23.519Z,66.90
2019-02-20T18:19:51.322Z,68.10
2019-02-20T18:22:19.265Z,68.40
2019-02-20T18:24:47.076Z,69.10
2019-02-20T18:27:14.863Z,70.00
2019-02-20T18:29:42.878Z,71.10
2019-02-20T18:32:14.185Z,74.00
2019-02-20T18:34:42.040Z,74.00
2019-02-20T18:37:10.098Z,74.70
2019-02-20T18:39:37.886Z,74.80
2019-02-20T18:42:05.782Z,75.40
2019-02-20T18:44:33.674Z,77.80
2019-02-20T18:47:01.513Z,77.00
2019-02-20T18:49:29.301Z,76.60
2019-02-20T18:51:57.314Z,78.30
2019-02-20T18:54:25.108Z,79.40
2019-02-20T18:56:52.874Z,78.50
2019-02-20T18:59:20.938Z,76.70
2019-02-20T19:01:48.826Z,76.30
2019-02-20T19:04:16.685Z,75.20
2019-02-20T19:06:44.755Z,74.10
2019-02-20T19:09:26.339Z,72.90
2019-02-20T19:12:54.764Z,73.70
2019-02-20T19:15:57.337Z,74.40
2019-02-20T19:19:29.322Z,73.40
2019-02-20T19:22:40.724Z,73.70
2019-02-20T19:26:02.636Z,73.30
2019-02-20T19:29:47.169Z,74.30
2019-02-20T19:33:07.189Z,75.40
2019-02-20T19:40:31.187Z,76.10
2019-02-20T19:43:47.971Z,76.40
2019-02-20T19:47:05.537Z,76.90
2019-02-20T19:50:29.385Z,76.40
2019-02-20T19:53:31.935Z,76.40
2019-02-20T19:56:38.270Z,76.60
2019-02-20T20:00:11.247Z,76.90
2019-02-20T20:03:53.198Z,76.00
2019-02-20T20:07:08.662Z,75.00
2019-02-20T20:10:12.808Z,75.50
2019-02-20T20:13:21.369Z,75.70
2019-02-20T20:16:23.467Z,74.60
2019-02-20T20:19:29.684Z,75.30
2019-02-20T20:22:55.384Z,74.70
2019-02-20T20:26:25.449Z,74.20
2019-02-20T20:29:41.742Z,75.10
2019-02-20T20:32:30.215Z,76.50
2019-02-20T20:35:46.557Z,77.30
2019-02-20T20:38:56.799Z,77.30
2019-02-20T20:42:33.841Z,77.80
2019-02-20T20:46:17.812Z,79.10
2019-02-20T20:50:01.411Z,80.00
2019-02-20T20:53:20.695Z,80.40
2019-02-20T20:56:38.272Z,79.90
2019-02-20T20:59:53.216Z,83.30
2019-02-20T21:02:54.633Z,84.90
2019-02-20T21:06:40.488Z,86.70
2019-02-20T21:09:29.334Z,88.40
2019-02-20T21:16:20.419Z,90.90
2019-02-20T21:19:29.615Z,89.80
2019-02-20T21:22:56.451Z,91.00
2019-02-20T21:26:25.206Z,91.70
2019-02-20T21:29:38.502Z,92.20
2019-02-20T21:33:00.605Z,91.90
2019-02-20T21:36:12.839Z,92.50
2019-02-20T21:39:38.277Z,93.10
2019-02-20T21:42:36.712Z,94.10
2019-02-20T21:45:43.818Z,93.60
2019-02-20T21:48:53.638Z,93.20
2019-02-20T21:52:18.193Z,93.50
2019-02-20T21:55:41.430Z,93.90
2019-02-20T22:02:49.293Z,94.80
2019-02-20T22:05:55.489Z,95.80
2019-02-20T22:09:34.901Z,94.70
2019-02-20T22:13:18.048Z,95.10
2019-02-20T22:16:34.299Z,95.00
2019-02-20T22:19:28.920Z,94.70
2019-02-20T22:22:50.089Z,96.30
2019-02-20T22:25:58.418Z,96.40
2019-02-20T22:28:58.885Z,96.60
2019-02-20T22:32:33.923Z,97.60
2019-02-20T22:35:55.708Z,97.60
2019-02-20T22:39:21.072Z,98.00
2019-02-20T22:46:30.537Z,98.20
2019-02-20T22:49:36.326Z,98.80
2019-02-20T22:52:41.932Z,99.00
2019-02-20T22:56:19.471Z,98.00
2019-02-20T22:59:27.145Z,97.70
2019-02-20T23:03:04.102Z,97.10
2019-02-20T23:06:18.471Z,96.10
2019-02-20T23:09:09.829Z,97.40
2019-02-20T23:12:16.042Z,97.40
2019-02-20T23:14:57.161Z,98.50
2019-02-20T23:17:27.140Z,98.90
2019-02-20T23:19:55.517Z,98.40
2019-02-20T23:22:23.508Z,98.60
2019-02-20T23:24:51.272Z,98.40
2019-02-20T23:27:20.346Z,97.90
2019-02-20T23:29:48.372Z,97.70
2019-02-20T23:32:16.146Z,97.80
2019-02-20T23:34:43.923Z,97.50
2019-02-20T23:37:11.889Z,97.00
2019-02-20T23:39:39.850Z,97.60
2019-02-20T23:42:07.758Z,98.20
2019-02-20T23:44:35.532Z,98.70
2019-02-20T23:47:03.470Z,98.90
2019-02-20T23:49:31.453Z,99.20
2019-02-20T23:51:59.225Z,99.10
2019-02-20T23:54:27.003Z,99.30
2019-02-20T23:56:54.952Z,99.60
2019-02-20T23:59:24.036Z,99.70
